createdAt,value
2019-03-19T00:01:02.554Z,47.44
2019-03-19T00:03:33.841Z,47.35
2019-03-19T00:06:05.352Z,47.15
2019-03-19T00:08:36.629Z,46.73
2019-03-19T00:11:07.796Z,46.76
2019-03-19T00:13:39.129Z,46.92
2019-03-19T00:16:10.125Z,47.32
2019-03-19T00:18:41.413Z,46.92
2019-03-19T00:21:12.535Z,47.01
2019-03-19T00:23:43.470Z,47.70
2019-03-19T00:26:14.424Z,48.27
2019-03-19T00:28:45.751Z,49.04
2019-03-19T00:31:17.002Z,49.69
2019-03-19T00:33:48.001Z,49.81
2019-03-19T00:36:18.940Z,50.33
2019-03-19T00:38:51.039Z,50.39
2019-03-19T00:41:22.089Z,51.11
2019-03-19T00:43:53.422Z,51.16
2019-03-19T00:46:24.573Z,51.29
2019-03-19T00:48:55.890Z,51.93
2019-03-19T00:51:26.845Z,53.00
2019-03-19T00:53:58.239Z,52.74
2019-03-19T00:56:29.283Z,53.31
2019-03-19T00:59:00.600Z,53.14
2019-03-19T01:01:31.801Z,53.75
2019-03-19T01:04:02.879Z,54.20
2019-03-19T01:06:33.900Z,54.34
2019-03-19T01:09:06.111Z,54.36
2019-03-19T01:11:37.349Z,54.60
2019-03-19T01:14:08.672Z,55.42
2019-03-19T01:16:39.917Z,55.63
2019-03-19T01:19:11.222Z,55.56
2019-03-19T01:21:42.907Z,55.95
2019-03-19T01:24:14.427Z,55.93
2019-03-19T01:26:46.075Z,56.54
2019-03-19T01:29:17.310Z,56.73
2019-03-19T01:31:48.804Z,56.35
2019-03-19T01:34:20.250Z,56.50
2019-03-19T01:36:51.452Z,56.66
2019-03-19T01:39:23.036Z,56.50
2019-03-19T01:41:54.571Z,56.51
2019-03-19T01:44:25.784Z,56.53
2019-03-19T01:46:57.277Z,56.88
2019-03-19T01:49:28.939Z,56.88
2019-03-19T01:52:00.414Z,57.02
2019-03-19T01:54:32.071Z,57.24
2019-03-19T01:57:03.599Z,57.68
2019-03-19T01:59:35.120Z,57.62
2019-03-19T02:02:06.402Z,58.08
2019-03-19T02:04:38.040Z,57.98
2019-03-19T02:07:09.839Z,57.99
2019-03-19T02:09:41.554Z,58.34
2019-03-19T02:12:13.309Z,58.08
2019-03-19T02:14:45.044Z,58.13
2019-03-19T02:17:16.238Z,58.39
2019-03-19T02:19:47.805Z,58.39
2019-03-19T02:22:19.486Z,58.48
2019-03-19T02:24:52.446Z,58.51
2019-03-19T02:27:24.062Z,58.50
2019-03-19T02:29:56.043Z,58.63
2019-03-19T02:32:27.582Z,59.00
2019-03-19T02:34:59.158Z,59.12
2019-03-19T02:37:30.884Z,59.09
2019-03-19T02:40:02.793Z,59.32
2019-03-19T02:42:34.314Z,59.52
2019-03-19T02:45:06.409Z,59.72
2019-03-19T02:47:38.613Z,60.03
2019-03-19T02:50:10.614Z,60.19
2019-03-19T02:52:42.309Z,60.28
2019-03-19T02:55:13.917Z,60.59
2019-03-19T02:57:45.673Z,61.05
2019-03-19T03:00:17.094Z,60.88
2019-03-19T03:02:48.798Z,60.72
2019-03-19T03:05:20.884Z,60.92
2019-03-19T03:07:52.421Z,60.92
2019-03-19T03:10:24.084Z,61.53
2019-03-19T03:12:55.345Z,61.88
2019-03-19T03:15:26.847Z,61.61
2019-03-19T03:17:58.441Z,61.87
2019-03-19T03:20:29.680Z,62.09
2019-03-19T03:23:01.060Z,62.51
2019-03-19T03:25:32.589Z,62.82
2019-03-19T03:28:04.134Z,63.05
2019-03-19T03:30:35.875Z,63.42
2019-03-19T03:33:07.322Z,62.87
2019-03-19T03:35:38.930Z,63.19
2019-03-19T03:38:10.195Z,63.33
2019-03-19T03:40:41.638Z,63.36
2019-03-19T03:43:13.004Z,63.11
2019-03-19T03:45:45.439Z,62.86
2019-03-19T03:48:16.781Z,63.06
2019-03-19T03:50:48.491Z,62.77
2019-03-19T03:53:20.109Z,62.89
2019-03-19T03:55:51.917Z,62.54
2019-03-19T03:58:23.565Z,62.94
2019-03-19T04:00:54.989Z,62.96
2019-03-19T04:03:26.484Z,62.99
2019-03-19T04:05:58.333Z,62.88
2019-03-19T04:08:30.138Z,62.91
2019-03-19T04:11:01.371Z,62.94
2019-03-19T04:13:33.052Z,62.70
2019-03-19T04:16:04.742Z,62.84
2019-03-19T04:18:36.331Z,63.13
2019-03-19T04:21:07.619Z,63.16
2019-03-19T04:23:38.962Z,63.85
2019-03-19T04:26:10.474Z,63.91
2019-03-19T04:28:41.802Z,63.39
2019-03-19T04:31:13.278Z,63.67
2019-03-19T04:33:44.913Z,63.44
2019-03-19T04:36:16.095Z,63.31
2019-03-19T04:38:47.433Z,63.52
2019-03-19T04:41:18.843Z,63.42
2019-03-19T04:43:50.436Z,63.88
2019-03-19T04:46:21.714Z,63.58
2019-03-19T04:48:53.338Z,64.27
2019-03-19T04:51:25.038Z,64.21
2019-03-19T04:53:56.559Z,63.54
2019-03-19T04:56:27.755Z,63.46
2019-03-19T04:58:59.534Z,64.03
2019-03-19T05:01:30.760Z,63.90
2019-03-19T05:04:02.252Z,63.93
2019-03-19T05:06:33.527Z,63.96
2019-03-19T05:09:06.573Z,63.20
2019-03-19T05:11:38.263Z,63.95
2019-03-19T05:14:09.551Z,64.26
2019-03-19T05:16:40.775Z,63.83
2019-03-19T05:19:12.170Z,64.00
2019-03-19T05:21:43.425Z,64.18
2019-03-19T05:24:14.777Z,63.90
2019-03-19T05:26:46.114Z,63.72
2019-03-19T05:29:17.677Z,64.11
2019-03-19T05:31:49.217Z,63.46
2019-03-19T05:34:20.586Z,62.24
2019-03-19T05:36:52.128Z,60.94
2019-03-19T05:39:23.455Z,59.24
2019-03-19T05:41:54.851Z,58.00
2019-03-19T05:44:26.335Z,57.06
2019-03-19T05:46:57.875Z,56.07
2019-03-19T05:49:29.196Z,55.20
2019-03-19T05:52:00.445Z,53.97
2019-03-19T05:54:33.079Z,53.72
2019-03-19T05:57:04.674Z,52.94
2019-03-19T05:59:36.230Z,52.88
2019-03-19T06:02:07.823Z,51.13
2019-03-19T06:04:39.351Z,51.38
2019-03-19T06:07:11.444Z,50.67
2019-03-19T06:09:43.158Z,50.24
2019-03-19T06:12:14.684Z,49.18
2019-03-19T06:14:46.280Z,50.15
2019-03-19T06:17:17.574Z,49.77
2019-03-19T06:19:49.301Z,50.14
2019-03-19T06:22:21.040Z,50.14
2019-03-19T06:24:52.669Z,50.34
2019-03-19T06:27:23.905Z,49.22
2019-03-19T06:29:55.582Z,50.46
2019-03-19T06:32:27.033Z,50.46
2019-03-19T06:34:58.586Z,49.94
2019-03-19T06:37:29.597Z,49.37
2019-03-19T06:40:01.057Z,48.33
2019-03-19T06:42:32.170Z,48.79
2019-03-19T06:45:03.434Z,48.19
2019-03-19T06:47:35.715Z,49.19
2019-03-19T06:50:07.567Z,46.85
2019-03-19T06:52:39.005Z,46.80
2019-03-19T06:55:11.837Z,47.33
2019-03-19T06:57:43.264Z,46.54
2019-03-19T07:00:17.097Z,46.66
2019-03-19T07:02:50.247Z,46.53
2019-03-19T07:05:21.747Z,46.65
2019-03-19T07:07:53.195Z,46.74
2019-03-19T07:10:24.358Z,46.63
2019-03-19T07:12:55.772Z,46.17
2019-03-19T07:15:27.278Z,45.60
2019-03-19T07:17:58.526Z,45.73
2019-03-19T07:20:29.908Z,46.13
2019-03-19T07:23:01.087Z,47.20
2019-03-19T07:25:32.143Z,46.08
2019-03-19T07:28:03.232Z,47.15
2019-03-19T07:30:34.475Z,46.07
2019-03-19T07:33:05.598Z,45.93
2019-03-19T07:35:36.927Z,45.19
2019-03-19T07:38:07.908Z,46.20
2019-03-19T07:40:39.233Z,45.32
2019-03-19T07:43:10.571Z,45.12
2019-03-19T07:45:42.076Z,45.07
2019-03-19T07:48:13.335Z,44.70
2019-03-19T07:50:44.534Z,45.23
2019-03-19T07:53:15.910Z,45.39
2019-03-19T07:55:47.338Z,45.87
2019-03-19T07:58:18.413Z,44.71
2019-03-19T08:00:49.529Z,44.86
2019-03-19T08:03:20.714Z,43.93
2019-03-19T08:05:51.916Z,45.17
2019-03-19T08:08:24.299Z,43.91
2019-03-19T08:10:55.541Z,44.48
2019-03-19T08:13:26.903Z,44.73
2019-03-19T08:15:58.102Z,44.67
2019-03-19T08:18:29.528Z,44.71
2019-03-19T08:21:00.895Z,45.26
2019-03-19T08:23:32.232Z,46.04
2019-03-19T08:26:03.523Z,46.35
2019-03-19T08:28:34.597Z,44.65
2019-03-19T08:31:05.926Z,44.48
2019-03-19T08:33:37.119Z,44.32
2019-03-19T08:36:09.604Z,43.72
2019-03-19T08:38:41.026Z,44.04
2019-03-19T08:41:12.255Z,42.28
2019-03-19T08:43:43.183Z,42.28
2019-03-19T08:46:14.611Z,42.46
2019-03-19T08:48:45.964Z,41.45
2019-03-19T08:51:17.151Z,40.80
2019-03-19T08:53:48.723Z,40.80
2019-03-19T08:56:19.836Z,41.52
2019-03-19T08:58:51.015Z,40.61
2019-03-19T09:01:22.427Z,39.18
2019-03-19T09:03:53.465Z,39.18
2019-03-19T09:06:24.900Z,40.74
2019-03-19T09:08:55.990Z,41.00
2019-03-19T09:11:27.187Z,41.60
2019-03-19T09:13:58.517Z,42.61
2019-03-19T09:16:29.719Z,42.42
2019-03-19T09:19:00.989Z,42.96
2019-03-19T09:21:33.465Z,42.96
2019-03-19T09:24:04.766Z,42.10
2019-03-19T09:26:35.994Z,42.10
2019-03-19T09:29:16.301Z,42.29
2019-03-19T09:31:39.802Z,41.56
2019-03-19T09:34:10.935Z,41.01
2019-03-19T09:36:41.953Z,41.13
2019-03-19T09:39:13.308Z,40.57
2019-03-19T09:41:44.719Z,43.36
2019-03-19T09:44:16.296Z,43.76
2019-03-19T09:46:47.656Z,43.76
2019-03-19T09:49:21.093Z,41.42
2019-03-19T09:51:52.100Z,41.42
2019-03-19T09:54:23.451Z,41.78
2019-03-19T09:56:54.769Z,40.82
2019-03-19T09:59:27.331Z,40.14
2019-03-19T10:01:59.875Z,39.94
2019-03-19T10:04:31.150Z,39.84
2019-03-19T10:07:06.243Z,39.96
2019-03-19T10:09:35.600Z,41.22
2019-03-19T10:12:07.041Z,40.82
2019-03-19T10:14:38.536Z,40.75
2019-03-19T10:17:10.196Z,39.55
2019-03-19T10:19:41.393Z,39.32
2019-03-19T10:22:15.122Z,39.90
2019-03-19T10:24:46.123Z,39.23
2019-03-19T10:27:19.620Z,38.67
2019-03-19T10:29:51.164Z,38.02
2019-03-19T10:32:22.276Z,38.10
2019-03-19T10:34:53.622Z,37.40
2019-03-19T10:37:24.774Z,36.80
2019-03-19T10:39:55.970Z,37.71
2019-03-19T10:42:27.414Z,37.21
2019-03-19T10:44:58.668Z,37.54
2019-03-19T10:47:30.107Z,36.90
2019-03-19T10:50:01.553Z,37.78
2019-03-19T10:52:33.735Z,38.13
2019-03-19T10:55:05.215Z,36.95
2019-03-19T10:57:36.588Z,37.48
2019-03-19T11:00:12.632Z,37.16
2019-03-19T11:02:43.865Z,37.30
2019-03-19T11:05:15.303Z,36.66
2019-03-19T11:07:46.570Z,37.64
2019-03-19T11:10:17.768Z,36.63
2019-03-19T11:12:49.293Z,36.59
2019-03-19T11:15:20.411Z,36.61
2019-03-19T11:17:51.738Z,37.73
2019-03-19T11:20:23.089Z,37.21
2019-03-19T11:22:54.207Z,36.83
2019-03-19T11:25:25.458Z,35.85
2019-03-19T11:27:56.827Z,36.21
2019-03-19T11:30:28.004Z,36.54
2019-03-19T11:32:59.328Z,37.08
2019-03-19T11:35:30.611Z,35.83
2019-03-19T11:38:01.847Z,35.73
2019-03-19T11:40:32.740Z,37.55
2019-03-19T11:43:03.883Z,37.21
2019-03-19T11:45:34.979Z,35.39
2019-03-19T11:48:06.730Z,37.82
2019-03-19T11:50:37.810Z,36.01
2019-03-19T11:53:08.952Z,35.71
2019-03-19T11:55:39.972Z,35.64
2019-03-19T11:58:11.105Z,35.83
2019-03-19T12:00:44.691Z,37.08
2019-03-19T12:03:16.607Z,35.88
2019-03-19T12:05:47.726Z,34.37
2019-03-19T12:08:18.796Z,34.50
2019-03-19T12:10:49.789Z,35.03
2019-03-19T12:13:20.905Z,35.75
2019-03-19T12:15:52.127Z,36.43
2019-03-19T12:18:23.216Z,37.29
2019-03-19T12:20:54.446Z,36.51
2019-03-19T12:23:25.528Z,37.24
2019-03-19T12:25:56.651Z,37.54
2019-03-19T12:28:27.744Z,37.17
2019-03-19T12:30:58.946Z,38.29
2019-03-19T12:33:40.095Z,36.88
2019-03-19T12:36:03.302Z,37.99
2019-03-19T12:38:34.480Z,37.01
2019-03-19T12:41:05.807Z,36.93
2019-03-19T12:43:37.077Z,37.09
2019-03-19T12:46:08.196Z,37.24
2019-03-19T12:48:39.714Z,36.36
2019-03-19T12:51:10.873Z,36.09
2019-03-19T12:53:42.002Z,37.04
2019-03-19T12:56:14.423Z,37.40
2019-03-19T12:58:45.686Z,37.13
2019-03-19T13:01:17.686Z,37.11
2019-03-19T13:03:49.673Z,36.55
2019-03-19T13:06:20.887Z,37.94
2019-03-19T13:08:52.155Z,35.60
2019-03-19T13:11:23.386Z,36.05
2019-03-19T13:13:54.563Z,37.45
2019-03-19T13:16:25.600Z,36.22
2019-03-19T13:18:56.590Z,37.45
2019-03-19T13:21:27.721Z,35.98
2019-03-19T13:23:58.657Z,36.29
2019-03-19T13:26:29.609Z,36.94
2019-03-19T13:29:00.980Z,36.58
2019-03-19T13:31:32.430Z,36.25
2019-03-19T13:34:03.526Z,37.15
2019-03-19T13:36:34.648Z,36.57
2019-03-19T13:39:08.283Z,36.65
2019-03-19T13:41:39.263Z,36.94
2019-03-19T13:44:11.353Z,36.56
2019-03-19T13:46:42.456Z,36.46
2019-03-19T13:49:13.419Z,37.06
2019-03-19T13:51:44.874Z,37.04
2019-03-19T13:54:16.714Z,36.45
2019-03-19T13:56:51.086Z,36.71
2019-03-19T13:59:22.198Z,37.06
2019-03-19T14:01:53.515Z,36.21
2019-03-19T14:04:31.681Z,36.25
2019-03-19T14:07:22.893Z,36.35
2019-03-19T14:09:55.171Z,36.64
2019-03-19T14:12:40.691Z,36.17
2019-03-19T14:15:37.277Z,36.02
2019-03-19T14:19:09.266Z,36.42
2019-03-19T14:22:36.082Z,36.66
2019-03-19T14:25:34.965Z,36.89
2019-03-19T14:28:11.823Z,37.42
2019-03-19T14:31:23.443Z,37.42
2019-03-19T14:34:19.939Z,37.19
2019-03-19T14:37:57.954Z,37.35
2019-03-19T14:40:36.476Z,37.53
2019-03-19T14:43:09.722Z,36.48
2019-03-19T14:45:41.026Z,36.76
2019-03-19T14:48:12.499Z,36.80
2019-03-19T14:50:43.430Z,37.02
2019-03-19T14:53:14.826Z,36.72
2019-03-19T14:55:46.068Z,36.71
2019-03-19T14:58:17.275Z,36.52
2019-03-19T15:00:48.265Z,36.74
2019-03-19T15:03:19.592Z,36.28
2019-03-19T15:05:50.962Z,36.86
2019-03-19T15:08:22.484Z,36.73
2019-03-19T15:10:53.973Z,36.69
2019-03-19T15:13:25.151Z,36.33
2019-03-19T15:16:37.589Z,36.06
2019-03-19T15:19:53.711Z,36.19
2019-03-19T15:22:56.559Z,36.35
2019-03-19T15:25:34.655Z,36.76
2019-03-19T15:28:06.262Z,36.57
2019-03-19T15:30:37.594Z,36.66
2019-03-19T15:33:33.834Z,36.23
2019-03-19T15:36:05.034Z,36.56
2019-03-19T15:38:36.438Z,36.15
2019-03-19T15:41:07.827Z,35.89
2019-03-19T15:43:40.967Z,35.94
2019-03-19T15:46:32.397Z,35.95
2019-03-19T15:49:03.604Z,36.14
2019-03-19T15:51:34.533Z,36.20
2019-03-19T15:54:05.607Z,36.21
2019-03-19T15:56:36.826Z,35.27
2019-03-19T15:59:07.805Z,36.96
2019-03-19T16:01:40.638Z,39.53
2019-03-19T16:04:11.882Z,40.71
2019-03-19T16:06:42.866Z,41.10
2019-03-19T16:09:14.029Z,41.85
2019-03-19T16:11:45.224Z,42.03
2019-03-19T16:14:16.437Z,42.19
2019-03-19T16:16:47.479Z,42.19
2019-03-19T16:19:18.703Z,42.92
2019-03-19T16:21:49.903Z,42.44
2019-03-19T16:24:21.112Z,42.14
2019-03-19T16:26:52.063Z,42.26
2019-03-19T16:29:29.363Z,43.18
2019-03-19T16:32:08.192Z,43.33
2019-03-19T16:34:48.409Z,43.33
2019-03-19T16:37:31.704Z,43.73
2019-03-19T16:40:45.194Z,43.73
2019-03-19T16:43:47.115Z,44.02
2019-03-19T16:46:36.370Z,44.25
2019-03-19T16:49:31.799Z,44.42
2019-03-19T16:52:06.781Z,44.71
2019-03-19T16:54:40.221Z,44.66
2019-03-19T16:57:15.344Z,44.60
2019-03-19T16:59:46.553Z,44.98
2019-03-19T17:02:17.798Z,44.98
2019-03-19T17:04:48.699Z,45.90
2019-03-19T17:07:20.014Z,45.90
2019-03-19T17:09:51.183Z,44.97
2019-03-19T17:12:22.284Z,44.97
2019-03-19T17:14:53.537Z,45.19
2019-03-19T17:17:24.537Z,45.37
2019-03-19T17:19:55.810Z,45.89
2019-03-19T17:22:26.770Z,45.79
2019-03-19T17:24:57.990Z,46.10
2019-03-19T17:27:29.359Z,46.10
2019-03-19T17:30:00.509Z,46.88
2019-03-19T17:32:33.468Z,46.67
2019-03-19T17:35:05.218Z,46.67
2019-03-19T17:37:36.671Z,46.32
2019-03-19T17:40:08.312Z,46.58
2019-03-19T17:42:39.438Z,46.52
2019-03-19T17:45:10.779Z,45.68
2019-03-19T17:47:42.005Z,45.68
2019-03-19T17:50:15.565Z,47.44
2019-03-19T17:52:46.726Z,47.52
2019-03-19T17:55:52.260Z,47.52
2019-03-19T17:58:23.667Z,47.71
2019-03-19T18:00:55.023Z,47.96
2019-03-19T18:03:26.319Z,47.58
2019-03-19T18:05:57.478Z,47.11
2019-03-19T18:08:28.696Z,47.11
2019-03-19T18:10:59.752Z,46.72
2019-03-19T18:13:30.986Z,46.79
2019-03-19T18:16:02.156Z,47.73
2019-03-19T18:18:33.505Z,47.95
2019-03-19T18:21:06.061Z,47.65
2019-03-19T18:23:37.367Z,47.98
2019-03-19T18:26:08.413Z,47.86
2019-03-19T18:28:41.443Z,48.09
2019-03-19T18:31:12.349Z,48.94
2019-03-19T18:33:43.693Z,49.01
2019-03-19T18:36:14.894Z,48.66
2019-03-19T18:38:46.091Z,48.59
2019-03-19T18:41:17.478Z,48.43
2019-03-19T18:43:48.789Z,48.08
2019-03-19T18:46:20.293Z,48.05
2019-03-19T18:48:51.610Z,47.66
2019-03-19T18:51:22.737Z,47.62
2019-03-19T18:53:53.974Z,48.42
2019-03-19T18:56:25.028Z,48.02
2019-03-19T18:58:56.018Z,47.37
2019-03-19T19:01:27.516Z,47.34
2019-03-19T19:03:58.922Z,47.93
2019-03-19T19:06:29.973Z,47.93
2019-03-19T19:09:01.196Z,48.19
2019-03-19T19:11:34.012Z,48.56
2019-03-19T19:14:05.277Z,48.95
2019-03-19T19:16:36.329Z,49.49
2019-03-19T19:19:15.316Z,49.33
2019-03-19T19:22:28.676Z,50.01
2019-03-19T19:25:35.805Z,50.25
2019-03-19T19:28:18.928Z,50.51
2019-03-19T19:30:51.054Z,50.54
2019-03-19T19:33:21.977Z,50.90
2019-03-19T19:35:53.420Z,51.08
2019-03-19T19:38:24.445Z,51.01
2019-03-19T19:40:55.412Z,51.15
2019-03-19T19:43:26.436Z,50.66
2019-03-19T19:45:57.612Z,50.80
2019-03-19T19:48:28.656Z,50.67
2019-03-19T19:50:59.974Z,50.63
2019-03-19T19:53:30.876Z,50.89
2019-03-19T19:56:01.900Z,50.93
2019-03-19T19:58:33.375Z,51.52
2019-03-19T20:01:04.495Z,51.34
2019-03-19T20:03:35.658Z,51.42
2019-03-19T20:06:07.015Z,51.78
2019-03-19T20:08:38.352Z,52.06
2019-03-19T20:11:09.740Z,51.87
2019-03-19T20:13:41.099Z,51.84
2019-03-19T20:16:12.047Z,52.28
2019-03-19T20:18:43.165Z,52.87
2019-03-19T20:21:14.406Z,52.15
2019-03-19T20:23:45.354Z,52.00
2019-03-19T20:26:16.789Z,51.99
2019-03-19T20:28:47.739Z,51.73
2019-03-19T20:31:18.963Z,51.98
2019-03-19T20:33:50.161Z,52.08
2019-03-19T20:36:21.623Z,52.63
2019-03-19T20:38:52.961Z,53.00
2019-03-19T20:41:24.306Z,52.81
2019-03-19T20:43:55.734Z,52.93
2019-03-19T20:46:26.831Z,53.01
2019-03-19T20:48:58.325Z,52.80
2019-03-19T20:51:29.334Z,53.48
2019-03-19T20:54:00.654Z,53.54
2019-03-19T20:56:31.927Z,53.38
2019-03-19T20:59:02.864Z,53.80
2019-03-19T21:01:34.286Z,54.21
2019-03-19T21:04:05.832Z,54.45
2019-03-19T21:06:37.138Z,55.41
2019-03-19T21:09:09.204Z,54.56
2019-03-19T21:11:40.599Z,55.08
2019-03-19T21:14:11.536Z,55.33
2019-03-19T21:16:42.880Z,55.13
2019-03-19T21:19:14.474Z,55.09
2019-03-19T21:21:45.893Z,55.25
2019-03-19T21:24:17.121Z,56.30
2019-03-19T21:26:48.399Z,55.81
2019-03-19T21:29:20.781Z,55.81
2019-03-19T21:31:52.061Z,55.31
2019-03-19T21:34:23.389Z,55.58
2019-03-19T21:36:55.766Z,56.33
2019-03-19T21:39:27.134Z,56.73
2019-03-19T21:41:58.812Z,56.23
2019-03-19T21:44:31.190Z,56.59
2019-03-19T21:47:02.697Z,56.47
2019-03-19T21:49:34.018Z,56.76
2019-03-19T21:52:05.519Z,57.29
2019-03-19T21:54:37.139Z,56.99
2019-03-19T21:57:08.678Z,56.97
2019-03-19T21:59:40.091Z,56.67
2019-03-19T22:02:11.339Z,57.03
2019-03-19T22:04:42.536Z,56.58
2019-03-19T22:07:13.831Z,57.27
2019-03-19T22:09:45.315Z,57.47
2019-03-19T22:12:16.603Z,57.39
2019-03-19T22:14:47.835Z,57.94
2019-03-19T22:17:19.045Z,57.97
2019-03-19T22:19:50.613Z,58.09
2019-03-19T22:22:22.322Z,58.05
2019-03-19T22:24:53.849Z,57.65
2019-03-19T22:27:25.541Z,57.84
2019-03-19T22:29:56.744Z,57.89
2019-03-19T22:32:28.024Z,57.87
2019-03-19T22:34:59.345Z,57.88
2019-03-19T22:37:30.770Z,57.88
2019-03-19T22:40:02.173Z,58.40
2019-03-19T22:42:34.056Z,58.78
2019-03-19T22:45:05.979Z,58.25
2019-03-19T22:47:37.423Z,57.81
2019-03-19T22:50:09.804Z,57.61
2019-03-19T22:52:41.078Z,57.96
2019-03-19T22:55:12.701Z,58.18
2019-03-19T22:57:44.314Z,58.18
2019-03-19T23:00:18.835Z,59.15
2019-03-19T23:02:51.605Z,58.85
2019-03-19T23:05:23.168Z,58.74
2019-03-19T23:07:54.446Z,59.67
2019-03-19T23:10:26.178Z,58.44
2019-03-19T23:12:57.567Z,58.44
2019-03-19T23:15:29.223Z,59.06
2019-03-19T23:18:00.658Z,58.93
2019-03-19T23:20:32.209Z,59.14
2019-03-19T23:23:03.507Z,59.77
2019-03-19T23:25:35.019Z,59.99
2019-03-19T23:28:07.441Z,60.16
2019-03-19T23:30:39.214Z,60.70
2019-03-19T23:33:10.619Z,60.57
2019-03-19T23:35:42.329Z,60.24
2019-03-19T23:38:13.656Z,60.42
2019-03-19T23:40:45.203Z,60.19
2019-03-19T23:43:16.488Z,59.81
2019-03-19T23:45:47.775Z,59.94
2019-03-19T23:48:19.627Z,60.24
2019-03-19T23:50:51.106Z,59.65
2019-03-19T23:53:22.877Z,59.93
2019-03-19T23:55:54.636Z,59.82
2019-03-19T23:58:26.282Z,60.11
